Terminal Aerodrome Forecast
Issued by NWS

Home | Current Version | Previous Version | Text Only | Print | Product List | Glossary On
Versions: 1 2 3 4 5 6 7 8 9 10 11 12
000
FTUS44 KLZK 011126
TAFBPK
TAF
KBPK 011126Z 0112/0212 00000KT 5SM BR SKC
      TEMPO 0112/0113 1/4SM FG
     FM011400 35005KT P6SM SCT250
     FM020000 12003KT P6SM SCT250=

USA.gov is the U.S. government's official web portal to all federal, state and local government web resources and services.